Contact Us:
Email: info@sawbill.com
Phone: (218)663-7150
Fax: (218)663-7980
Mail: 4620 Sawbill Trail
Box 2129
Tofte, MN 55615


Powered by
Movable Type 3.15
 
Sawbill Weather History Archives: July 2013
Current Sawbill Weather History | « June 2013 | August 2013 »


Date

High
Temperature

Low
Temperature

Barometric
Pressure

Relative
Humidity 7AM

9 AM
Temperature

Moisture

Snow

7/31/13 71 57 30.33 86% 58 0
7/30/13 66 58 30.36 92% 59 Trace
7/29/13 69 49 30.47 87% 49 .17"
7/28/13 62 48 30.45 83% 49 0
7/27/13 52 46 30.27 98% 48 .25"
7/26/13 56 45 30.27 98% 46 1.39"
7/25/13 69 54 30.27 98% 56 .5"
7/24/13 72 47 30.32 97% 54 .1"
7/23/13 67 47 30.39 73% 47 0
7/22/13 75 54 30.27 63% 54 Trace
7/21/13 66 42 30.03 98% 58 Trace
7/20/13 65 42 30.39 75% 42 0
7/19/13 72 52 30.39 48% 58 0
7/18/13 74 63 30.12 96% 63 4.31"
7/17/13 77 65 30.42 92% 66 .24"
7/16/13 85 60 30.62 70% 72 0
7/15/13 70 60 30.53 91% 60 0
7/14/13 68 65 30.65 98% 65 .53"
7/13/13 78 61 30.50 78% 65 Trace
7/12/13 78 65 30.33 88% 67 .26"
7/11/13 76 54 30.36 78% 60 0
7/10/13 70 54 30.47 78% 54 0
7/9/13 70 57 30.30 84% 58 .33"
7/8/13 74 56 30.30 98% 61 Trace
7/7/13 70 59 30.36 91% 59 Trace
7/6/13 80 64 30.27 92% 64 .47"
7/5/13 82 62 30.27 72% 64 0
7/4/13 79 59 30.27 72% 62 0
7/3/13 79 47 30.36 56% 61 0
7/2/13 74 45 30.45 67% 47 0
7/1/13 76 45 30.38 66% 45 0
 


Home I Trip Planning I Rentals and Outfitting I Reservations I Campgrounds I Sawbill Store I Sawbill News I Contact

© 1997 - 2017, Sawbill Canoe Outfitters, Inc. I Privacy Policy